Visit our other weather sites:

Template documentation
and downloads

And another site



Nearby METAR Reports

   
EBAW - Antwerp
Updated: 13-12-2018 14:50
Few Clouds  
Few Clouds  
   Wind: East 6.7 m/s
Wind: East 6.7 m/s
Temperature: 3°C
Wind Chill: -2°C
Dew Point: -3°C
Humidity: 65%
Barometer: 1019 hPa
Clouds: Few Clouds
Visibility: More than 10 km
Cloud details: Few Clouds 2500 ft
EBAW 131350Z 10013KT 9999 FEW025 03/M03 Q1019 NOSIG
EBLG - Liège
Updated: 13-12-2018 14:50
Clear  
Clear  
   Wind: ENE 4.6 m/s
Wind: ENE 4.6 m/s
Temperature: 2°C
Wind Chill: -2°C
Dew Point: -4°C
Humidity: 65%
Barometer: 1017 hPa
Visibility: More than 10 km
Cloud details: Clear
EBLG 131350Z 07009KT CAVOK 02/M04 Q1017 NOSIG
EBCV - Mons/Bergen
Updated: 13-12-2018 14:55
Few Clouds  
Few Clouds  
   Wind: East 4.6 m/s
Wind: East 4.6 m/s
Temperature: 2°C
Wind Chill: -2°C
Dew Point: -2°C
Humidity: 75%
Barometer: 1018 hPa
Clouds: Few Clouds
Visibility: More than 10 km
Cloud details: Few Clouds 2500 ft
EBCV 131355Z AUTO 08009KT 9999 FEW025/// 02/M02 Q1018 BLU
EHBK - Maastricht
Updated: 13-12-2018 14:55
Clear  
Clear  
   Wind: East 3.6 m/s
Wind: East 3.6 m/s
Temperature: 2°C
Wind Chill: -2°C
Dew Point: -3°C
Humidity: 70%
Barometer: 1018 hPa
Clouds: Clear
Visibility: More than 10 km
Cloud details: Clear
EHBK 131355Z AUTO 08007KT 9999 NCD 02/M03 Q1018 NOSIG
ELLX - Luxemburg
Updated: 13-12-2018 14:50
Partly Cloudy  
Partly Cloudy  
   Wind: ENE 6.2 m/s
Wind: ENE 6.2 m/s
Temperature: 0°C
Wind Chill: -6°C
Dew Point: -6°C
Humidity: 64%
Barometer: 1015 hPa
Clouds: Partly Cloudy
Visibility: More than 10 km
Cloud details: Few Clouds 2000 ft,
Partly Cloudy 2500 ft
ELLX 131350Z 07012KT 050V120 9999 FEW020 SCT025 00/M06 Q1015 NOSIG
EBOS - Oostende
Updated: 13-12-2018 14:50
Few Clouds  
Few Clouds  
   Wind: East 5.7 m/s
Wind: East 5.7 m/s
Temperature: 3°C
Wind Chill: -2°C
Dew Point: -3°C
Humidity: 65%
Barometer: 1018 hPa
Clouds: Few Clouds
Visibility: More than 10 km
Cloud details: Few Clouds 1400 ft
EBOS 131350Z 10011KT 9999 FEW014 03/M03 Q1018 NOSIG

Script developed by  Saratoga-weather.org Adapted for the template by  Weerstation Leuven

You find our weather info also at:

Weather Underground

Equipment we use:

Weather-station
Davis Vantage Vue

Weather-program
WeatherCat

Provider
one.com

Davis Vantage Vue

WeatherCat

one.com